createdAt,value
2019-01-06T00:01:14.667Z,5.6
2019-01-06T00:06:47.426Z,5.6
2019-01-06T00:12:10.435Z,4.4
2019-01-06T00:17:34.289Z,5.4
2019-01-06T00:22:58.065Z,5.2
2019-01-06T00:28:55.562Z,5.1
2019-01-06T00:34:17.728Z,6.8
2019-01-06T00:40:59.374Z,7
2019-01-06T00:46:22.823Z,6.3
2019-01-06T00:51:56.203Z,6.4
2019-01-06T00:57:19.578Z,5.1
2019-01-06T01:02:42.412Z,6.1
2019-01-06T01:08:14.429Z,3.3
2019-01-06T01:13:37.206Z,4.3
2019-01-06T01:19:00.168Z,4.5
2019-01-06T01:24:25.461Z,3.6
2019-01-06T01:30:57.449Z,5.9
2019-01-06T01:36:21.588Z,5.8
2019-01-06T01:41:54.404Z,4.8
2019-01-06T01:47:28.987Z,4.4
2019-01-06T01:53:02.560Z,5.2
2019-01-06T01:58:26.254Z,4.2
2019-01-06T02:03:50.385Z,5
2019-01-06T02:09:53.649Z,4.7
2019-01-06T02:15:16.758Z,6.9
2019-01-06T02:28:06.151Z,8.1
2019-01-06T02:34:30.256Z,10.5
2019-01-06T02:39:54.033Z,11.5
2019-01-06T02:45:27.177Z,8.9
2019-01-06T02:51:00.358Z,9.9
2019-01-06T02:56:32.547Z,9.9
2019-01-06T03:01:55.257Z,10.6
2019-01-06T03:07:20.859Z,10.7
2019-01-06T03:12:46.131Z,9.3
2019-01-06T03:18:21.531Z,8.4
2019-01-06T03:23:45.505Z,8.5
2019-01-06T03:29:19.979Z,8.6
2019-01-06T03:34:43.684Z,9.2
2019-01-06T03:41:12.787Z,7.8
2019-01-06T03:46:37.658Z,8.3
2019-01-06T03:53:55.109Z,13.9
2019-01-06T03:59:20.886Z,7.6
2019-01-06T04:05:47.411Z,10.1
2019-01-06T04:11:14.967Z,9
2019-01-06T04:17:04.632Z,6.8
2019-01-06T04:22:58.503Z,7.8
2019-01-06T04:28:30.227Z,8.8
2019-01-06T04:34:04.090Z,6.9
2019-01-06T04:39:28.396Z,5.4
2019-01-06T04:45:00.992Z,4.8
2019-01-06T04:50:44.519Z,6.7
2019-01-06T04:56:31.954Z,6.8
2019-01-06T05:01:54.547Z,7.4
2019-01-06T05:07:31.305Z,7.2
2019-01-06T05:12:56.237Z,9
2019-01-06T05:18:35.204Z,7.5
2019-01-06T05:23:58.363Z,7.2
2019-01-06T05:29:22.967Z,8.3
2019-01-06T05:35:01.022Z,8.7
2019-01-06T05:40:25.306Z,9.4
2019-01-06T05:45:58.886Z,10
2019-01-06T05:51:31.169Z,9.9
2019-01-06T05:57:08.342Z,8.6
2019-01-06T06:02:31.343Z,10.4
2019-01-06T06:07:55.781Z,11.7
2019-01-06T06:13:28.482Z,10.8
2019-01-06T06:19:15.367Z,10.4
2019-01-06T06:25:25.211Z,11.6
2019-01-06T06:30:55.239Z,9.6
2019-01-06T06:36:40.021Z,11.4
2019-01-06T06:42:27.809Z,10.8
2019-01-06T06:47:53.182Z,10.1
2019-01-06T06:53:25.260Z,9.8
2019-01-06T06:58:59.873Z,10.2
2019-01-06T07:04:30.813Z,8.4
2019-01-06T07:10:05.880Z,10.8
2019-01-06T07:15:29.285Z,12.3
2019-01-06T07:21:05.942Z,13.5
2019-01-06T07:26:33.483Z,13.1
2019-01-06T07:32:08.219Z,11.1
2019-01-06T07:37:41.315Z,11.3
2019-01-06T07:43:17.998Z,13.7
2019-01-06T07:49:15.036Z,17.200001
2019-01-06T07:55:21.185Z,17.700001
2019-01-06T08:00:44.414Z,15.6
2019-01-06T08:06:07.200Z,16.200001
2019-01-06T08:11:39.985Z,16.799999
2019-01-06T08:18:34.461Z,18.9
2019-01-06T08:23:57.589Z,21.700001
2019-01-06T08:29:34.448Z,18.1
2019-01-06T08:35:06.665Z,19.1
2019-01-06T08:40:29.489Z,18
2019-01-06T08:45:52.398Z,17.9
2019-01-06T08:51:17.258Z,15.1
2019-01-06T08:56:41.752Z,16.6
2019-01-06T09:03:37.406Z,16.200001
2019-01-06T09:09:00.741Z,16.4
2019-01-06T09:14:25.335Z,18.4
2019-01-06T09:19:50.381Z,17.5
2019-01-06T09:25:24.295Z,14.2
2019-01-06T09:30:57.329Z,12
2019-01-06T09:37:53.181Z,15.6
2019-01-06T09:43:19.782Z,14.1
2019-01-06T09:48:43.110Z,15.1
2019-01-06T09:54:15.671Z,16.5
2019-01-06T09:59:38.550Z,12.6
2019-01-06T10:05:11.817Z,12.1
2019-01-06T10:11:03.885Z,11
2019-01-06T10:16:56.575Z,16.4
2019-01-06T10:22:34.369Z,16.4
2019-01-06T10:27:57.538Z,15.5
2019-01-06T10:34:02.509Z,14
2019-01-06T10:39:27.801Z,16.200001
2019-01-06T10:44:54.827Z,14.8
2019-01-06T10:50:18.551Z,14.8
2019-01-06T10:55:41.356Z,19.1
2019-01-06T11:01:04.511Z,17.5
2019-01-06T11:06:27.344Z,14.1
2019-01-06T11:11:50.133Z,18.1
2019-01-06T11:17:12.969Z,16.1
2019-01-06T11:22:35.868Z,18.799999
2019-01-06T11:27:58.862Z,18.6
2019-01-06T11:33:31.066Z,18.799999
2019-01-06T11:38:56.860Z,11.8
2019-01-06T11:44:47.785Z,11.2
2019-01-06T11:50:10.554Z,13.9
2019-01-06T11:55:42.192Z,13.3
2019-01-06T12:01:05.385Z,12.6
2019-01-06T12:06:29.708Z,12.6
2019-01-06T12:12:03.951Z,14.2
2019-01-06T12:17:27.081Z,16.799999
2019-01-06T12:22:59.864Z,17.1
2019-01-06T12:28:31.570Z,15.8
2019-01-06T12:34:54.000Z,17.9
2019-01-06T12:40:32.744Z,14
2019-01-06T12:45:55.655Z,13
2019-01-06T12:51:53.076Z,9.7
2019-01-06T12:57:16.329Z,9.2
2019-01-06T13:02:50.276Z,9.4
2019-01-06T13:08:25.566Z,13.1
2019-01-06T13:13:49.686Z,16.9
2019-01-06T13:19:12.478Z,13.3
2019-01-06T13:26:08.080Z,12.4
2019-01-06T13:31:31.167Z,9.3
2019-01-06T13:37:03.818Z,7.7
2019-01-06T13:42:27.351Z,9.3
2019-01-06T13:47:53.086Z,15.8
2019-01-06T13:53:16.928Z,8.3
2019-01-06T13:58:51.000Z,8
2019-01-06T14:04:13.993Z,7.7
2019-01-06T14:09:51.018Z,7.8
2019-01-06T14:15:25.861Z,7.8
2019-01-06T14:20:50.458Z,8
2019-01-06T14:26:14.135Z,10
2019-01-06T14:31:37.060Z,10.2
2019-01-06T14:37:08.625Z,10.6
2019-01-06T14:42:31.214Z,12.5
2019-01-06T14:47:53.932Z,12.8
2019-01-06T14:54:46.000Z,12.2
2019-01-06T15:00:09.676Z,11.2
2019-01-06T15:05:32.396Z,14.3
2019-01-06T15:10:56.352Z,11
2019-01-06T15:16:19.306Z,9.2
2019-01-06T15:21:56.632Z,10.2
2019-01-06T15:27:32.163Z,10.4
2019-01-06T15:33:06.249Z,9
2019-01-06T15:38:59.002Z,10.1
2019-01-06T15:44:23.809Z,11.5
2019-01-06T15:49:58.139Z,15
2019-01-06T15:55:29.926Z,14
2019-01-06T16:01:02.885Z,19.299999
2019-01-06T16:06:41.168Z,18.1
2019-01-06T16:12:07.384Z,14.1
2019-01-06T16:17:31.910Z,10.8
2019-01-06T16:23:07.994Z,12.3
2019-01-06T16:28:43.382Z,12
2019-01-06T16:34:06.118Z,9.6
2019-01-06T16:39:40.054Z,12.2
2019-01-06T16:45:03.439Z,14.2
2019-01-06T16:50:37.719Z,12.4
2019-01-06T16:56:09.326Z,12.3
2019-01-06T17:01:42.597Z,11.2
2019-01-06T17:07:15.250Z,12.3
2019-01-06T17:12:47.264Z,11.2
2019-01-06T17:18:10.305Z,18.1
2019-01-06T17:24:36.672Z,16.799999
2019-01-06T17:30:08.419Z,13.6
2019-01-06T17:35:34.493Z,13.1
2019-01-06T17:40:57.436Z,15
2019-01-06T17:46:20.317Z,16.700001
2019-01-06T17:51:44.027Z,18.4
2019-01-06T17:57:08.322Z,17.5
2019-01-06T18:02:31.197Z,21.200001
2019-01-06T18:07:53.913Z,15.9
2019-01-06T18:13:16.776Z,17.299999
2019-01-06T18:18:40.158Z,16.1
2019-01-06T18:24:02.990Z,16.200001
2019-01-06T18:29:38.166Z,14.1
2019-01-06T18:35:11.277Z,13
2019-01-06T18:40:44.814Z,11.3
2019-01-06T18:46:07.629Z,15.5
2019-01-06T18:51:30.719Z,19.299999
2019-01-06T18:56:53.689Z,18.9
2019-01-06T19:02:18.710Z,20.4
2019-01-06T19:07:43.968Z,19.200001
2019-01-06T19:13:17.011Z,24.6
2019-01-06T19:18:52.168Z,21.700001
2019-01-06T19:24:24.010Z,24.799999
2019-01-06T19:29:46.755Z,23.6
2019-01-06T19:35:10.871Z,26.9
2019-01-06T19:41:35.381Z,19.1
2019-01-06T19:46:58.694Z,24.200001
2019-01-06T19:52:32.486Z,25.6
2019-01-06T19:58:05.469Z,21.9
2019-01-06T20:03:28.123Z,23
2019-01-06T20:08:52.454Z,22.5
2019-01-06T20:14:15.449Z,22.6
2019-01-06T20:20:27.075Z,23.4
2019-01-06T20:25:51.376Z,26.6
2019-01-06T20:31:25.733Z,30.1
2019-01-06T20:36:58.848Z,23.5
2019-01-06T20:42:22.805Z,27.6
2019-01-06T20:47:46.168Z,21.299999
2019-01-06T20:53:10.558Z,26
2019-01-06T20:58:33.548Z,28.5
2019-01-06T21:03:56.319Z,26.299999
2019-01-06T21:09:28.486Z,26.9
2019-01-06T21:14:52.638Z,32.099998
2019-01-06T21:20:25.694Z,38.799999
2019-01-06T21:25:49.119Z,30.1
2019-01-06T21:31:11.945Z,35.400002
2019-01-06T21:36:44.681Z,45.900002
2019-01-06T21:42:07.550Z,39.200001
2019-01-06T21:47:44.175Z,44.900002
2019-01-06T21:53:15.174Z,37.799999
2019-01-06T21:58:48.036Z,43.400002
2019-01-06T22:04:12.476Z,40.200001
2019-01-06T22:09:50.913Z,41.799999
2019-01-06T22:15:15.394Z,38.299999
2019-01-06T22:20:47.887Z,46.799999
2019-01-06T22:26:20.690Z,52.099998
2019-01-06T22:31:43.741Z,41.900002
2019-01-06T22:37:17.630Z,40.900002
2019-01-06T22:42:41.185Z,40.900002
2019-01-06T22:48:18.321Z,41.299999
2019-01-06T22:53:44.001Z,40.900002
2019-01-06T22:59:07.631Z,42.099998
2019-01-06T23:04:30.580Z,40.900002
2019-01-06T23:10:33.876Z,50.200001
2019-01-06T23:16:07.524Z,40.700001
2019-01-06T23:21:30.695Z,47.400002
2019-01-06T23:27:03.330Z,39.799999
2019-01-06T23:32:35.702Z,47
2019-01-06T23:38:09.907Z,48.599998
2019-01-06T23:43:33.209Z,46.599998
2019-01-06T23:49:10.276Z,45.799999
2019-01-06T23:54:34.345Z,51.099998
